Time;durP1;ratioP1;P1;durP2;ratioP2;P2;SDS_P1;SDS_P2;PMS_P1;PMS_P2;Temp;Humidity;BMP_temperature;BMP_pressure;BME280_temperature;BME280_humidity;BME280_pressure;Samples;Min_cycle;Max_cycle;Signal;HPM_P1;HPM_P2
2023/08/30 00:02:56;;;;;;;3.05;2.75;;;;;;;-145.68;100.00;73561.75;10417431;28;20219;-67
2023/08/30 00:07:56;;;;;;;4.32;2.90;;;;;;;-145.68;100.00;73567.75;10417310;28;20220;-68
2023/08/30 00:12:56;;;;;;;4.47;3.80;;;;;;;-145.68;100.00;73573.75;10416920;28;20813;-68
2023/08/30 00:17:57;;;;;;;4.57;3.00;;;;;;;-145.68;100.00;73579.75;10416852;28;20189;-68
2023/08/30 00:22:57;;;;;;;4.18;3.50;;;;;;;-145.68;100.00;73565.75;10416384;28;20216;-68
2023/08/30 00:27:57;;;;;;;5.82;3.67;;;;;;;-145.68;100.00;73563.75;10416286;28;20220;-68
2023/08/30 00:32:58;;;;;;;5.05;3.47;;;;;;;-145.68;100.00;73557.75;10416312;28;20236;-67
2023/08/30 00:37:58;;;;;;;5.22;3.08;;;;;;;-145.68;100.00;73569.75;10398238;28;20199;-68
2023/08/30 00:42:59;;;;;;;3.75;3.28;;;;;;;-145.68;100.00;73549.75;10398233;28;20582;-67
2023/08/30 00:47:59;;;;;;;4.47;3.20;;;;;;;-145.68;100.00;73547.75;10397845;28;20224;-67
2023/08/30 00:53:05;;;;;;;3.33;3.05;;;;;;;-145.68;100.00;73527.78;10397559;28;20346;-67
2023/08/30 00:58:05;;;;;;;3.20;2.90;;;;;;;-145.68;100.00;73537.78;10397767;28;20259;-67
2023/08/30 01:03:07;;;;;;;3.05;2.75;;;;;;;-145.68;100.00;73523.78;10396939;28;20554;-67
2023/08/30 01:08:07;;;;;;;5.45;3.58;;;;;;;-145.68;100.00;73521.78;10397069;28;20606;-67
2023/08/30 01:13:10;;;;;;;4.90;3.65;;;;;;;-145.68;100.00;73517.78;10396876;28;20211;-68
2023/08/30 01:18:11;;;;;;;4.93;4.40;;;;;;;-145.68;100.00;73507.78;10380309;28;20651;-67
2023/08/30 01:23:21;;;;;;;6.47;5.10;;;;;;;-145.68;100.00;73511.78;10396741;28;20265;-67
2023/08/30 01:28:24;;;;;;;6.13;5.32;;;;;;;-145.68;100.00;73513.78;10396396;28;20730;-67
2023/08/30 01:33:29;;;;;;;10.00;6.45;;;;;;;-145.68;100.00;73507.78;10464602;22;20721;-66
2023/08/30 01:38:31;;;;;;;7.43;6.57;;;;;;;-145.68;100.00;73511.78;10454974;28;20188;-67
2023/08/30 01:43:33;;;;;;;11.35;9.05;;;;;;;-145.68;100.00;73519.78;10436982;28;20211;-68
2023/08/30 01:48:34;;;;;;;9.75;8.80;;;;;;;-145.68;100.00;73507.78;10454810;28;20208;-68
2023/08/30 01:53:36;;;;;;;14.48;8.88;;;;;;;-145.68;100.00;73507.78;10454139;28;20212;-68
2023/08/30 01:58:36;;;;;;;10.52;8.93;;;;;;;-145.68;100.00;73491.81;10435836;28;20187;-68
2023/08/30 02:03:37;;;;;;;10.63;8.75;;;;;;;-145.68;100.00;73483.81;10435283;28;20674;-67
2023/08/30 02:09:12;;;;;;;12.93;9.68;;;;;;;-145.68;100.00;73483.81;10453475;28;20218;-68
2023/08/30 02:14:15;;;;;;;13.68;8.48;;;;;;;-145.68;100.00;73463.81;10435963;28;20212;-67
2023/08/30 02:19:20;;;;;;;13.25;9.48;;;;;;;-145.68;100.00;73467.81;10436144;28;20187;-68
2023/08/30 02:24:22;;;;;;;12.13;10.05;;;;;;;-145.68;100.00;73475.81;10453336;28;20200;-68
2023/08/30 02:29:23;;;;;;;10.35;9.18;;;;;;;-145.68;100.00;73453.81;10435345;28;20212;-67
2023/08/30 02:34:24;;;;;;;9.20;8.07;;;;;;;-145.68;100.00;73455.81;10452975;28;20237;-67
2023/08/30 02:39:26;;;;;;;9.55;7.43;;;;;;;-145.68;100.00;73453.81;10435156;28;20234;-68
2023/08/30 02:44:26;;;;;;;8.32;6.22;;;;;;;-145.68;100.00;73435.84;10452709;28;20739;-68
2023/08/30 02:49:27;;;;;;;10.85;7.32;;;;;;;-145.68;100.00;73439.84;10434933;28;20848;-68
2023/08/30 02:54:27;;;;;;;9.55;6.50;;;;;;;-145.68;100.00;73425.84;10434797;28;20234;-68
2023/08/30 02:59:28;;;;;;;9.23;7.85;;;;;;;-145.68;100.00;73427.84;10452446;28;20684;-68
2023/08/30 03:04:28;;;;;;;8.13;7.32;;;;;;;-145.68;100.00;73423.84;10434085;28;20211;-67
2023/08/30 03:09:29;;;;;;;21.48;8.70;;;;;;;-145.68;100.00;73427.84;10434349;28;20269;-68
2023/08/30 03:14:29;;;;;;;8.73;7.82;;;;;;;-145.68;100.00;73411.84;10452181;28;20286;-67
2023/08/30 03:19:29;;;;;;;14.60;8.57;;;;;;;-145.68;100.00;73423.84;10442383;28;20194;-68
2023/08/30 03:24:30;;;;;;;9.85;8.75;;;;;;;-145.68;100.00;73409.84;10460141;28;20666;-67
2023/08/30 03:29:31;;;;;;;10.20;8.55;;;;;;;-145.68;100.00;73397.84;10460375;28;20211;-68
2023/08/30 03:34:31;;;;;;;11.48;8.63;;;;;;;-145.68;100.00;73387.88;10441745;28;20766;-68
2023/08/30 03:39:32;;;;;;;9.82;8.63;;;;;;;-145.68;100.00;73399.84;10442057;28;20576;-67
2023/08/30 03:44:33;;;;;;;10.98;8.65;;;;;;;-145.68;100.00;73401.84;10459422;28;20659;-68
2023/08/30 03:49:35;;;;;;;8.90;7.65;;;;;;;-145.68;100.00;73413.84;10441321;28;20265;-66
2023/08/30 03:54:35;;;;;;;8.55;7.32;;;;;;;-145.68;100.00;73395.84;10459230;28;20870;-67
2023/08/30 03:59:36;;;;;;;9.50;7.93;;;;;;;-145.68;100.00;73391.84;10458989;28;20172;-66
2023/08/30 04:04:36;;;;;;;8.38;7.55;;;;;;;-145.68;100.00;73379.88;10440927;28;20216;-67
2023/08/30 04:09:36;;;;;;;7.68;6.93;;;;;;;-145.68;100.00;73383.88;10458489;28;20250;-68
2023/08/30 04:14:37;;;;;;;9.45;7.00;;;;;;;-145.68;100.00;73363.88;10440488;28;20266;-67
2023/08/30 04:19:38;;;;;;;11.00;6.85;;;;;;;-145.68;100.00;73369.88;10458112;28;20180;-68
2023/08/30 04:24:42;;;;;;;7.70;6.90;;;;;;;-145.68;100.00;73363.88;10457968;28;20779;-67
2023/08/30 04:29:44;;;;;;;10.68;7.25;;;;;;;-145.68;100.00;73363.88;10471028;28;20207;-66
2023/08/30 04:34:45;;;;;;;12.45;7.18;;;;;;;-145.68;100.00;73347.88;10480875;28;20251;-67
2023/08/30 04:39:49;;;;;;;7.32;6.63;;;;;;;-145.68;100.00;73341.91;10480753;28;20188;-67
2023/08/30 04:44:49;;;;;;;9.80;6.85;;;;;;;-145.68;100.00;73355.88;10498522;28;20188;-67
2023/08/30 04:49:51;;;;;;;10.93;7.07;;;;;;;-145.68;100.00;73327.91;10498330;28;20183;-67
2023/08/30 04:54:52;;;;;;;9.70;7.25;;;;;;;-145.68;100.00;73323.91;10480245;28;20188;-68
2023/08/30 04:59:52;;;;;;;10.52;7.55;;;;;;;-145.68;100.00;73333.91;10479992;28;20190;-67
2023/08/30 05:04:53;;;;;;;8.52;7.68;;;;;;;-145.68;100.00;73339.91;10497862;28;20191;-67
2023/08/30 05:09:53;;;;;;;7.80;6.53;;;;;;;-145.68;100.00;73329.91;10479445;28;20195;-67
2023/08/30 05:14:53;;;;;;;12.52;7.32;;;;;;;-145.68;100.00;73323.91;10497491;28;20580;-66
2023/08/30 05:19:54;;;;;;;12.25;6.85;;;;;;;-145.68;100.00;73323.91;10479213;28;20195;-67
2023/08/30 05:24:54;;;;;;;8.85;8.05;;;;;;;-145.68;100.00;73327.91;10479096;28;20183;-67
2023/08/30 05:29:55;;;;;;;10.80;8.60;;;;;;;-145.68;100.00;73327.91;10417902;28;20199;-68
2023/08/30 05:34:59;;;;;;;9.70;8.70;;;;;;;-145.68;100.00;73317.91;10396455;28;20276;-68
2023/08/30 05:40:29;;;;;;;10.45;8.30;;;;;;;-145.68;100.00;73289.94;10395343;28;20216;-68
2023/08/30 05:45:30;;;;;;;13.85;8.45;;;;;;;-145.68;100.00;73269.94;10413478;28;20224;-68
2023/08/30 05:50:30;;;;;;;12.07;10.02;;;;;;;-145.68;100.00;73245.97;10395687;28;20213;-67
2023/08/30 05:55:31;;;;;;;10.70;8.20;;;;;;;-145.68;100.00;73231.97;10395474;28;20197;-68
2023/08/30 06:00:31;;;;;;;12.73;10.30;;;;;;;-145.68;100.00;73229.97;10395404;28;20209;-68
2023/08/30 06:05:33;;;;;;;12.55;10.00;;;;;;;-145.68;100.00;73219.97;10412875;28;20645;-68
2023/08/30 06:10:33;;;;;;;15.00;12.60;;;;;;;-145.68;100.00;73198.00;10412527;28;20208;-68
2023/08/30 06:15:35;;;;;;;24.50;19.73;;;;;;;-145.68;100.00;73211.97;10412743;28;20528;-68
2023/08/30 06:20:35;;;;;;;24.08;21.10;;;;;;;-145.68;100.00;73215.97;10412206;28;20307;-69
2023/08/30 06:25:36;;;;;;;28.90;22.35;;;;;;;-145.68;100.00;73168.00;10412265;28;20617;-68
2023/08/30 06:30:37;;;;;;;34.08;23.15;;;;;;;-145.68;100.00;73180.00;10411586;28;20773;-69
2023/08/30 06:35:42;;;;;;;27.85;22.35;;;;;;;-145.68;100.00;73150.03;10444563;28;20241;-69
2023/08/30 06:40:44;;;;;;;30.42;23.65;;;;;;;-145.68;100.00;73118.03;10494382;28;20211;-69
2023/08/30 06:45:44;;;;;;;28.52;24.00;;;;;;;-145.68;100.00;73112.03;10494050;28;20226;-69
2023/08/30 06:50:44;;;;;;;28.05;24.52;;;;;;;-145.68;100.00;73124.03;10493920;28;20715;-69
2023/08/30 06:55:45;;;;;;;33.80;25.10;;;;;;;-145.68;100.00;73104.06;10493769;28;20187;-69
2023/08/30 07:00:45;;;;;;;29.85;22.90;;;;;;;-145.68;100.00;73096.06;10493700;28;20722;-70
2023/08/30 07:05:47;;;;;;;24.13;21.27;;;;;;;-145.68;100.00;73096.06;10455454;28;20219;-68
2023/08/30 07:10:47;;;;;;;27.15;20.10;;;;;;;-145.68;100.00;73068.06;10450456;28;20211;-69
2023/08/30 07:15:48;;;;;;;20.50;18.40;;;;;;;-145.68;100.00;73054.09;10449848;28;20192;-70
2023/08/30 07:20:48;;;;;;;19.17;17.17;;;;;;;-145.68;100.00;73056.09;10447092;28;20603;-68
2023/08/30 07:25:51;;;;;;;17.88;16.13;;;;;;;-145.68;100.00;73034.09;10449505;28;20227;-69
2023/08/30 07:30:51;;;;;;;17.63;15.80;;;;;;;-145.68;100.00;73040.09;10432435;28;20239;-69
2023/08/30 07:35:53;;;;;;;16.05;14.43;;;;;;;-145.68;100.00;73020.13;10468770;22;20240;-67
2023/08/30 07:40:54;;;;;;;11.95;10.32;;;;;;;-145.68;100.00;72998.13;10450022;28;20196;-67
2023/08/30 07:45:54;;;;;;;10.57;9.68;;;;;;;-145.68;100.00;72992.13;10448621;28;20223;-67
2023/08/30 07:50:54;;;;;;;10.77;9.65;;;;;;;-145.68;100.00;72944.16;10449680;28;20200;-67
2023/08/30 07:55:55;;;;;;;9.45;8.55;;;;;;;-145.68;100.00;72934.19;10448927;28;20204;-67
2023/08/30 08:00:55;;;;;;;8.25;7.38;;;;;;;-145.68;100.00;72942.16;10450182;28;20196;-68
2023/08/30 08:05:58;;;;;;;11.48;7.45;;;;;;;-145.68;100.00;72914.19;10456809;28;20219;-67
2023/08/30 08:10:59;;;;;;;8.13;7.32;;;;;;;-145.68;100.00;72936.19;10456583;28;20577;-67
2023/08/30 08:15:59;;;;;;;7.43;5.88;;;;;;;-145.68;100.00;72936.19;10457338;28;20207;-66
2023/08/30 08:20:59;;;;;;;7.70;6.18;;;;;;;-145.68;100.00;72914.19;10454787;28;20176;-66
2023/08/30 08:26:00;;;;;;;7.85;5.53;;;;;;;-145.68;100.00;72892.22;10456379;28;20219;-66
2023/08/30 08:31:01;;;;;;;6.05;5.45;;;;;;;-145.68;100.00;72838.25;10456258;28;20195;-67
2023/08/30 08:36:01;;;;;;;8.13;5.93;;;;;;;-145.68;100.00;72808.28;10455822;28;20710;-67
2023/08/30 08:41:05;;;;;;;5.80;4.68;;;;;;;-145.68;96.12;72704.34;10456080;28;20579;-67
2023/08/30 08:46:06;;;;;;;7.28;5.35;;;;;;;-145.68;97.97;72740.31;10455312;28;20268;-67
2023/08/30 08:51:06;;;;;;;7.20;4.55;;;;;;;-145.68;93.35;72674.38;10437570;28;20200;-67
2023/08/30 08:56:08;;;;;;;7.57;4.90;;;;;;;-145.68;86.77;72652.41;10454946;28;20216;-67
2023/08/30 09:01:09;;;;;;;4.90;4.43;;;;;;;-145.68;85.74;72604.44;10437405;28;20183;-67
2023/08/30 09:06:09;;;;;;;7.47;4.75;;;;;;;-145.68;80.99;72646.41;10437186;28;20714;-67
2023/08/30 09:11:09;;;;;;;11.13;4.55;;;;;;;-145.68;79.57;72550.47;10436416;28;20200;-67
2023/08/30 09:16:14;;;;;;;5.63;4.13;;;;;;;-145.68;80.89;72556.47;10453443;28;20720;-67
2023/08/30 09:21:14;;;;;;;7.38;3.50;;;;;;;-145.68;81.72;72578.47;10453575;28;20211;-67
2023/08/30 09:26:15;;;;;;;6.10;4.20;;;;;;;-145.68;77.67;72592.44;10452012;28;20215;-67
2023/08/30 09:31:19;;;;;;;4.32;3.88;;;;;;;-145.68;76.51;72656.41;10453168;28;20661;-67
2023/08/30 09:36:19;;;;;;;5.05;3.22;;;;;;;-145.68;77.10;72662.38;10452814;28;20235;-68
2023/08/30 09:41:20;;;;;;;2.50;2.22;;;;;;;-145.68;73.92;72528.50;10452943;28;20200;-67
2023/08/30 09:46:20;;;;;;;2.38;1.85;;;;;;;-145.68;69.00;72466.56;10452116;28;20215;-69
2023/08/30 09:51:22;;;;;;;6.30;2.28;;;;;;;-145.68;64.40;72428.59;10453027;28;20192;-69
2023/08/30 09:56:23;;;;;;;4.97;2.45;;;;;;;-145.68;68.03;72572.47;10433195;28;20192;-68
2023/08/30 10:01:23;;;;;;;3.13;2.10;;;;;;;-145.68;66.33;72454.56;10451572;28;20184;-68
2023/08/30 10:06:24;;;;;;;2.25;2.00;;;;;;;-145.68;63.14;72344.66;10434460;28;20303;-68
2023/08/30 10:11:26;;;;;;;2.45;2.25;;;;;;;-145.68;60.83;72340.66;10451243;28;20560;-68
2023/08/30 10:16:30;;;;;;;4.85;1.65;;;;;;;-145.68;58.44;72212.78;10451626;28;20550;-69
2023/08/30 10:21:31;;;;;;;1.55;1.45;;;;;;;-145.68;55.68;72192.78;10433509;28;20196;-68
2023/08/30 10:26:32;;;;;;;3.50;2.03;;;;;;;-145.68;59.40;72430.59;10431628;28;20595;-69
2023/08/30 10:31:32;;;;;;;2.55;1.52;;;;;;;-145.68;61.95;72434.59;10432825;28;20202;-69
2023/08/30 10:36:33;;;;;;;4.18;1.70;;;;;;;-145.68;59.94;72506.50;10450859;28;20199;-69
2023/08/30 10:41:33;;;;;;;2.85;1.75;;;;;;;-145.68;60.69;72372.63;10451291;28;20196;-68
2023/08/30 10:46:36;;;;;;;4.40;1.30;;;;;;;-145.68;53.34;72222.78;10450992;28;20239;-68
2023/08/30 10:51:38;;;;;;;2.22;1.60;;;;;;;-145.68;52.94;72140.84;10450348;28;20187;-68
2023/08/30 10:56:50;;;;;;;2.72;1.90;;;;;;;-145.68;48.98;72092.91;10451002;28;20227;-68
2023/08/30 11:01:51;;;;;;;5.18;1.70;;;;;;;-145.68;52.14;72044.94;10449110;28;20285;-69
2023/08/30 11:06:52;;;;;;;4.35;1.60;;;;;;;-145.68;49.43;72060.94;10449819;28;20315;-68
2023/08/30 11:11:52;;;;;;;4.50;1.50;;;;;;;-145.68;48.63;71993.00;10450556;28;20214;-67
2023/08/30 11:16:53;;;;;;;1.05;1.00;;;;;;;-145.68;46.81;71837.16;10449798;28;20184;-67
2023/08/30 11:21:54;;;;;;;1.27;1.10;;;;;;;-145.68;47.32;71789.19;10450629;28;20203;-69
2023/08/30 11:26:55;;;;;;;3.08;1.52;;;;;;;-145.68;44.69;71893.09;10431537;28;20592;-68
2023/08/30 11:31:55;;;;;;;2.60;1.40;;;;;;;-145.68;44.12;71765.22;10448462;28;20236;-67
2023/08/30 11:36:55;;;;;;;2.63;1.60;;;;;;;-145.68;46.36;71797.19;10451696;28;20516;-67
2023/08/30 11:41:56;;;;;;;1.85;1.30;;;;;;;-145.68;41.11;71575.41;10457531;28;20239;-68
2023/08/30 11:46:58;;;;;;;1.50;1.40;;;;;;;-145.68;45.24;71649.34;10457772;28;20273;-67
2023/08/30 11:51:59;;;;;;;14.40;9.07;;;;;;;-145.68;41.74;71643.34;10457164;28;20204;-67
2023/08/30 11:56:59;;;;;;;2.30;1.98;;;;;;;-145.68;48.17;72178.81;10457467;28;20192;-68
2023/08/30 12:01:59;;;;;;;7.03;3.65;;;;;;;-145.68;46.11;72034.94;10455493;28;20594;-68
2023/08/30 12:07:00;;;;;;;4.75;1.95;;;;;;;-145.68;49.09;72218.78;10456903;28;20223;-67
2023/08/30 12:12:10;;;;;;;2.53;1.85;;;;;;;-145.68;47.34;72128.84;10456698;28;20212;-68
2023/08/30 12:17:12;;;;;;;1.92;1.73;;;;;;;-145.68;46.92;72076.91;10456171;28;20672;-67
2023/08/30 12:22:12;;;;;;;2.40;1.70;;;;;;;-145.68;49.38;72198.78;10455979;28;20585;-68
2023/08/30 12:27:13;;;;;;;5.15;2.08;;;;;;;-145.68;53.12;72332.66;10455769;28;20226;-67
2023/08/30 12:32:13;;;;;;;4.03;2.38;;;;;;;-145.68;52.46;72266.72;10455269;28;20234;-68
2023/08/30 12:37:14;;;;;;;4.00;1.70;;;;;;;-145.68;51.96;72220.78;10449424;28;20650;-67
2023/08/30 12:42:14;;;;;;;5.30;1.85;;;;;;;-145.68;57.23;72418.59;10454748;28;20638;-68
2023/08/30 12:47:14;;;;;;;1.70;1.60;;;;;;;-145.68;55.15;72302.69;10454585;28;20278;-68
2023/08/30 12:52:16;;;;;;;4.07;2.00;;;;;;;-145.68;54.57;72218.78;10454272;28;20277;-68
2023/08/30 12:57:16;;;;;;;1.90;1.40;;;;;;;-145.68;53.56;72176.81;10448660;28;20199;-68
2023/08/30 13:02:17;;;;;;;2.47;1.45;;;;;;;-145.68;50.28;72160.81;10454644;28;20590;-68
2023/08/30 13:07:17;;;;;;;3.15;1.45;;;;;;;-145.68;49.88;72088.91;10451736;28;20720;-68
2023/08/30 13:12:17;;;;;;;4.72;1.85;;;;;;;-145.68;48.26;72110.88;10440758;28;20219;-68
2023/08/30 13:17:18;;;;;;;2.33;1.15;;;;;;;-145.68;50.46;72132.84;10450579;28;20196;-68
2023/08/30 13:22:18;;;;;;;2.20;1.20;;;;;;;-145.68;50.71;72174.81;10439833;28;20208;-69
2023/08/30 13:27:19;;;;;;;3.35;1.40;;;;;;;-145.68;50.47;72102.88;10411891;28;20221;-69
2023/08/30 13:32:20;;;;;;;2.15;1.50;;;;;;;-145.68;48.06;72020.97;10425401;28;20608;-69
2023/08/30 13:37:20;;;;;;;1.65;1.55;;;;;;;-145.68;47.02;71815.16;10431839;28;20214;-68
2023/08/30 13:42:21;;;;;;;3.50;1.77;;;;;;;-145.68;41.85;71557.44;10431097;28;20208;-69
2023/08/30 13:47:21;;;;;;;3.30;1.50;;;;;;;-145.68;41.92;71593.41;10430313;23;20245;-70
2023/08/30 13:52:22;;;;;;;1.98;1.52;;;;;;;-145.68;41.21;71595.41;10410342;28;20200;-69
2023/08/30 13:57:22;;;;;;;1.85;1.48;;;;;;;-145.68;45.33;72028.94;10411936;28;20247;-69
2023/08/30 14:02:24;;;;;;;4.78;1.80;;;;;;;-145.68;41.82;71737.25;10395744;28;20693;-69
2023/08/30 14:07:25;;;;;;;5.07;1.98;;;;;;;-145.68;42.80;71813.16;10389111;28;20298;-69
2023/08/30 14:12:25;;;;;;;3.25;1.25;;;;;;;-145.68;42.55;71827.16;10402075;28;20201;-69
2023/08/30 14:17:26;;;;;;;5.28;1.58;;;;;;;-145.68;45.43;71989.00;10399378;28;21095;-69
2023/08/30 14:22:26;;;;;;;1.70;1.60;;;;;;;-145.68;47.46;72124.88;10399604;28;20184;-69
2023/08/30 14:27:26;;;;;;;3.67;1.42;;;;;;;-145.68;49.75;72136.84;10408537;28;20315;-69
2023/08/30 14:32:28;;;;;;;1.90;1.50;;;;;;;-145.68;50.16;72074.91;10416242;28;20302;-69
2023/08/30 14:37:29;;;;;;;3.13;1.50;;;;;;;-145.68;48.55;72038.94;10410373;28;20200;-68
2023/08/30 14:42:29;;;;;;;4.10;1.65;;;;;;;-145.68;49.91;72194.78;10409756;28;20188;-67
2023/08/30 14:47:31;;;;;;;2.25;1.25;;;;;;;-145.68;49.74;72112.88;10410013;28;20271;-68
2023/08/30 14:52:31;;;;;;;1.70;1.45;;;;;;;-145.68;50.85;72178.81;10409729;28;20607;-68
2023/08/30 14:57:31;;;;;;;2.17;1.63;;;;;;;-145.68;52.65;72254.75;10399375;28;20205;-68
2023/08/30 15:02:32;;;;;;;2.90;1.70;;;;;;;-145.68;57.50;72314.69;10391106;28;20188;-68
2023/08/30 15:07:32;;;;;;;3.05;1.67;;;;;;;-145.68;63.86;72318.69;10387381;28;20221;-68
2023/08/30 15:12:33;;;;;;;2.72;1.90;;;;;;;-145.68;72.83;72456.56;10393808;28;20188;-69
2023/08/30 15:17:33;;;;;;;1.63;1.52;;;;;;;-145.68;71.02;72404.59;10396808;28;20212;-67
2023/08/30 15:22:34;;;;;;;2.22;1.73;;;;;;;-145.68;73.89;72406.59;10405201;28;20203;-68
2023/08/30 15:27:35;;;;;;;2.17;1.77;;;;;;;-145.68;75.53;72414.59;10377744;28;20749;-68
2023/08/30 15:32:35;;;;;;;3.10;1.80;;;;;;;-145.68;77.79;72436.56;10406279;28;20192;-68
2023/08/30 15:37:36;;;;;;;3.40;1.80;;;;;;;-145.68;82.04;72486.53;10417044;28;20254;-68
2023/08/30 15:42:36;;;;;;;2.83;1.77;;;;;;;-145.68;82.49;72500.53;10417046;28;20197;-68
2023/08/30 15:47:37;;;;;;;1.90;1.70;;;;;;;-145.68;83.49;72508.50;10415297;28;20240;-68
2023/08/30 15:52:37;;;;;;;4.47;2.03;;;;;;;-145.68;84.82;72516.50;10397396;28;20185;-68
2023/08/30 15:57:38;;;;;;;4.63;2.10;;;;;;;-145.68;86.59;72526.50;10410586;28;20220;-68
2023/08/30 16:02:39;;;;;;;4.28;2.00;;;;;;;-145.68;87.38;72544.50;10416280;28;20188;-68
2023/08/30 16:07:39;;;;;;;2.00;1.90;;;;;;;-145.68;91.19;72544.50;10416214;28;20228;-68
2023/08/30 16:12:40;;;;;;;2.53;2.13;;;;;;;-145.68;87.90;72532.50;10415944;28;20192;-68
2023/08/30 16:17:40;;;;;;;5.88;2.10;;;;;;;-145.68;87.62;72536.50;10415746;28;20738;-68
2023/08/30 16:22:40;;;;;;;2.65;1.70;;;;;;;-145.68;86.34;72534.50;10412946;28;20204;-68
2023/08/30 16:27:41;;;;;;;3.15;2.03;;;;;;;-145.68;91.88;72564.47;10412970;28;20221;-68
2023/08/30 16:32:41;;;;;;;2.05;1.85;;;;;;;-145.68;95.49;72594.44;10416250;28;20192;-68
2023/08/30 16:37:42;;;;;;;2.97;2.17;;;;;;;-145.68;98.11;72658.38;10416294;28;20212;-68
2023/08/30 16:42:42;;;;;;;2.40;2.20;;;;;;;-145.68;100.00;72686.38;10416588;28;20180;-68
2023/08/30 16:47:42;;;;;;;4.10;2.22;;;;;;;-145.68;100.00;72720.34;10414377;28;20232;-68
2023/08/30 16:52:43;;;;;;;2.92;2.10;;;;;;;-145.68;100.00;72722.34;10375083;28;20288;-68
2023/08/30 16:57:43;;;;;;;6.10;2.05;;;;;;;-145.68;100.00;72740.31;10407446;28;20217;-68
2023/08/30 17:02:48;;;;;;;5.30;2.08;;;;;;;-145.68;100.00;72756.31;10415106;28;20570;-68
2023/08/30 17:07:52;;;;;;;2.40;2.20;;;;;;;-145.68;100.00;72786.28;10414687;28;20274;-68
2023/08/30 17:12:57;;;;;;;3.97;2.35;;;;;;;-145.68;100.00;72804.28;10414991;28;20195;-68
2023/08/30 17:17:57;;;;;;;2.97;2.67;;;;;;;-145.68;100.00;72788.28;10411520;28;20223;-68
2023/08/30 17:22:58;;;;;;;4.00;2.88;;;;;;;-145.68;100.00;72824.25;10391829;28;20193;-68
2023/08/30 17:27:58;;;;;;;3.05;2.50;;;;;;;-145.68;100.00;72824.25;10414455;28;20228;-68
2023/08/30 17:32:59;;;;;;;3.15;2.88;;;;;;;-145.68;100.00;72856.22;10414086;28;20192;-68
2023/08/30 17:37:59;;;;;;;2.58;2.38;;;;;;;-145.68;100.00;72852.25;10413199;28;20209;-68
2023/08/30 17:43:02;;;;;;;5.05;2.50;;;;;;;-145.68;100.00;72868.22;10414088;28;20784;-68
2023/08/30 17:48:03;;;;;;;3.08;2.10;;;;;;;-145.68;100.00;72872.22;10395517;28;20780;-68
2023/08/30 17:53:03;;;;;;;3.92;2.20;;;;;;;-145.68;100.00;72900.19;10413715;28;20193;-69
2023/08/30 17:58:04;;;;;;;2.80;2.42;;;;;;;-145.68;100.00;72916.19;10413795;28;20591;-68
2023/08/30 18:03:05;;;;;;;3.20;2.88;;;;;;;-145.68;100.00;72950.16;10414164;28;20651;-69
2023/08/30 18:08:05;;;;;;;2.78;2.55;;;;;;;-145.68;100.00;72988.13;10412989;28;20229;-68
2023/08/30 18:13:05;;;;;;;4.38;2.97;;;;;;;-145.68;100.00;73020.13;10412454;28;20204;-68
2023/08/30 18:18:06;;;;;;;3.60;2.95;;;;;;;-145.68;100.00;73038.09;10412316;28;20204;-68
2023/08/30 18:23:06;;;;;;;4.63;3.28;;;;;;;-145.68;100.00;73060.09;10411732;28;20535;-68
2023/08/30 18:28:07;;;;;;;6.40;3.20;;;;;;;-145.68;100.00;73078.06;10411533;28;20699;-68
2023/08/30 18:33:08;;;;;;;5.43;3.10;;;;;;;-145.68;100.00;73096.06;10411660;28;20196;-69
2023/08/30 18:38:08;;;;;;;7.15;3.92;;;;;;;-145.68;100.00;73124.03;10411282;28;20641;-68
2023/08/30 18:43:09;;;;;;;4.80;4.13;;;;;;;-145.68;100.00;73132.03;10411499;28;20188;-68
2023/08/30 18:48:10;;;;;;;6.68;4.05;;;;;;;-145.68;100.00;73154.03;10410339;28;20228;-68
2023/08/30 18:53:15;;;;;;;7.40;5.95;;;;;;;-145.68;100.00;73174.00;10412725;28;20651;-68
2023/08/30 18:58:15;;;;;;;6.18;3.92;;;;;;;-145.68;100.00;73188.00;10410714;28;20240;-68
2023/08/30 19:03:16;;;;;;;3.90;3.53;;;;;;;-145.68;100.00;73200.00;10410556;28;20242;-68
2023/08/30 19:08:17;;;;;;;3.88;3.58;;;;;;;-145.68;100.00;73196.00;10410704;28;20219;-68
2023/08/30 19:13:17;;;;;;;6.40;3.47;;;;;;;-145.68;100.00;73201.97;10410444;28;20701;-68
2023/08/30 19:18:17;;;;;;;5.70;3.67;;;;;;;-145.68;100.00;73211.97;10405439;28;20213;-68
2023/08/30 19:23:18;;;;;;;9.82;4.05;;;;;;;-145.68;100.00;73231.97;10369414;28;20238;-68
2023/08/30 19:28:19;;;;;;;5.70;3.63;;;;;;;-145.68;100.00;73235.97;10385559;28;20697;-68
2023/08/30 19:33:20;;;;;;;9.35;3.90;;;;;;;-145.68;100.00;73255.94;10388305;28;20276;-68
2023/08/30 19:38:21;;;;;;;5.70;3.53;;;;;;;-145.68;100.00;73251.94;10400634;28;20262;-68
2023/08/30 19:43:21;;;;;;;4.18;3.50;;;;;;;-145.68;100.00;73251.94;10410384;28;20203;-68
2023/08/30 19:48:22;;;;;;;9.00;3.70;;;;;;;-145.68;100.00;73271.94;10429803;22;20243;-66
2023/08/30 19:53:22;;;;;;;4.80;3.97;;;;;;;-145.68;100.00;73259.94;10409221;28;20189;-67
2023/08/30 19:58:23;;;;;;;4.72;3.88;;;;;;;-145.68;100.00;73261.94;10412420;28;20212;-68
2023/08/30 20:03:23;;;;;;;6.15;3.45;;;;;;;-145.68;100.00;73257.94;10417103;28;20262;-67
2023/08/30 20:08:24;;;;;;;3.67;3.25;;;;;;;-145.68;100.00;73245.97;10417913;28;20266;-67
2023/08/30 20:13:24;;;;;;;8.98;3.28;;;;;;;-145.68;100.00;73217.97;10419449;28;20837;-67
2023/08/30 20:18:24;;;;;;;3.50;3.20;;;;;;;-145.68;100.00;73196.00;10388240;28;20304;-68
2023/08/30 20:23:25;;;;;;;5.30;2.75;;;;;;;-145.68;100.00;73188.00;10375569;28;20553;-68
2023/08/30 20:28:25;;;;;;;3.88;2.83;;;;;;;-145.68;100.00;73190.00;10375439;28;20694;-67
2023/08/30 20:33:27;;;;;;;3.63;2.72;;;;;;;-145.68;100.00;73184.00;10375479;28;20217;-68
2023/08/30 20:38:29;;;;;;;4.32;3.20;;;;;;;-145.68;100.00;73170.00;10375654;28;20205;-67
2023/08/30 20:43:29;;;;;;;5.68;2.50;;;;;;;-145.68;100.00;73156.00;10375123;28;20220;-67
2023/08/30 20:48:30;;;;;;;6.57;3.25;;;;;;;-145.68;100.00;73150.03;10375071;28;20217;-68
2023/08/30 20:53:42;;;;;;;2.88;2.50;;;;;;;-145.68;100.00;73172.00;10374915;28;20196;-67
2023/08/30 20:58:44;;;;;;;4.13;2.70;;;;;;;-145.68;100.00;73168.00;10357623;28;20356;-68
2023/08/30 21:03:44;;;;;;;6.47;2.72;;;;;;;-145.68;100.00;73160.00;10374069;28;20620;-68
2023/08/30 21:08:45;;;;;;;2.70;2.50;;;;;;;-145.68;100.00;73136.03;10373937;28;20217;-68
2023/08/30 21:13:45;;;;;;;3.30;2.90;;;;;;;-145.68;100.00;73136.03;10374131;28;20249;-67
2023/08/30 21:18:45;;;;;;;4.63;2.90;;;;;;;-145.68;100.00;73120.03;10373900;28;20205;-67
2023/08/30 21:23:46;;;;;;;9.55;2.92;;;;;;;-145.68;100.00;73120.03;10373803;28;20193;-68
2023/08/30 21:28:47;;;;;;;4.55;2.90;;;;;;;-145.68;100.00;73128.03;10373398;28;20287;-66
2023/08/30 21:33:52;;;;;;;3.33;2.88;;;;;;;-145.68;100.00;73128.03;10373508;28;20189;-68
2023/08/30 21:38:54;;;;;;;3.08;2.72;;;;;;;-145.68;100.00;73114.03;10373128;28;20213;-67
2023/08/30 21:43:54;;;;;;;5.63;3.15;;;;;;;-145.68;100.00;73124.03;10372923;28;20240;-67
2023/08/30 21:48:54;;;;;;;3.78;3.10;;;;;;;-145.68;100.00;73120.03;10372638;28;20237;-68
2023/08/30 21:53:55;;;;;;;8.80;3.20;;;;;;;-145.68;100.00;73126.03;10372463;28;20185;-67
2023/08/30 21:58:55;;;;;;;4.55;3.55;;;;;;;-145.68;100.00;73134.03;10372585;28;20271;-68
2023/08/30 22:03:56;;;;;;;3.47;3.17;;;;;;;-145.68;100.00;73130.03;10372123;28;20269;-67
2023/08/30 22:08:56;;;;;;;3.70;3.30;;;;;;;-145.68;100.00;73108.06;10372042;28;20224;-68
2023/08/30 22:13:56;;;;;;;3.70;3.33;;;;;;;-145.68;100.00;73100.06;10371824;28;20185;-68
2023/08/30 22:18:57;;;;;;;7.85;3.75;;;;;;;-145.68;100.00;73096.06;10371764;28;20209;-67
2023/08/30 22:23:59;;;;;;;5.18;3.80;;;;;;;-145.68;100.00;73100.06;10371067;28;20245;-68
2023/08/30 22:29:00;;;;;;;3.92;3.55;;;;;;;-145.68;100.00;73096.06;10371254;28;20255;-67
2023/08/30 22:34:00;;;;;;;4.53;4.03;;;;;;;-145.68;100.00;73094.06;10371382;28;20686;-67